Time;durP1;ratioP1;P1;durP2;ratioP2;P2;SDS_P1;SDS_P2;PMS_P1;PMS_P2;Temp;Humidity;BMP_temperature;BMP_pressure;BME280_temperature;BME280_humidity;BME280_pressure;Samples;Min_cycle;Max_cycle;Signal;HPM_P1;HPM_P2
2024/02/14 00:00:30;;;;;;;40.00;23.00;;;;;;;10.76;75.39;98875.92;82113;1293;3011168;-63
2024/02/14 00:02:59;;;;;;;39.20;23.30;;;;;;;10.66;75.51;98869.13;80833;1295;3052808;-64
2024/02/14 00:05:26;;;;;;;34.90;22.10;;;;;;;10.50;75.53;98866.38;82121;1292;3012757;-60
2024/02/14 00:07:52;;;;;;;31.40;19.40;;;;;;;10.31;75.78;98864.16;82096;1294;3012358;-63
2024/02/14 00:10:20;;;;;;;36.90;19.30;;;;;;;10.15;75.75;98862.30;80862;1292;3026240;-64
2024/02/14 00:12:48;;;;;;;37.30;18.80;;;;;;;10.00;76.26;98860.48;82117;1294;3018313;-64
2024/02/14 00:15:16;;;;;;;32.80;19.10;;;;;;;9.92;76.33;98860.51;82135;1294;3011448;-60
2024/02/14 00:17:43;;;;;;;36.20;21.00;;;;;;;9.82;76.63;98858.69;80877;1294;3051361;-64
2024/02/14 00:20:12;;;;;;;34.40;18.70;;;;;;;9.76;76.95;98855.95;82156;1294;3018519;-64
2024/02/14 00:22:42;;;;;;;43.90;20.90;;;;;;;9.69;76.96;98858.67;81563;1292;3011479;-62
2024/02/14 00:25:09;;;;;;;38.10;21.00;;;;;;;9.65;77.32;98859.70;82149;1293;3018754;-63
2024/02/14 00:27:35;;;;;;;41.70;21.00;;;;;;;9.58;77.17;98861.88;82086;1294;3011177;-65
2024/02/14 00:30:05;;;;;;;31.80;18.70;;;;;;;9.52;77.46;98858.94;80846;1292;3026253;-63
2024/02/14 00:32:31;;;;;;;33.60;19.60;;;;;;;9.46;77.78;98857.81;82087;1294;3012747;-64
2024/02/14 00:34:58;;;;;;;36.10;19.50;;;;;;;9.42;78.00;98854.70;82145;1294;3011037;-64
2024/02/14 00:37:26;;;;;;;33.50;18.90;;;;;;;9.36;78.11;98854.72;80865;1294;3068386;-62
2024/02/14 00:39:53;;;;;;;38.60;20.20;;;;;;;9.30;78.30;98856.51;82140;1293;3018651;-66
2024/02/14 00:42:20;;;;;;;35.60;19.80;;;;;;;9.28;78.74;98857.21;82081;1294;3011801;-64
2024/02/14 00:44:48;;;;;;;34.40;18.50;;;;;;;9.28;78.45;98856.35;80825;1292;3053840;-64
2024/02/14 00:47:14;;;;;;;27.60;15.50;;;;;;;9.28;78.44;98854.23;82136;1298;3018856;-65
2024/02/14 00:49:41;;;;;;;31.50;16.10;;;;;;;9.72;77.88;98858.16;82130;1294;3011458;-67
2024/02/14 00:52:09;;;;;;;34.50;17.60;;;;;;;10.31;76.73;98855.59;80892;1294;3025218;-64
2024/02/14 00:54:35;;;;;;;32.50;18.00;;;;;;;10.49;75.91;98857.38;82110;1295;3013363;-65
2024/02/14 00:57:02;;;;;;;28.10;17.70;;;;;;;10.36;75.49;98857.88;82102;1292;3010919;-66
2024/02/14 00:59:30;;;;;;;35.30;17.70;;;;;;;10.22;75.85;98865.48;80837;1294;3026822;-65
2024/02/14 01:01:57;;;;;;;30.00;16.30;;;;;;;10.09;76.07;98872.13;82135;1294;3018779;-65
2024/02/14 01:04:23;;;;;;;38.80;20.20;;;;;;;9.95;76.29;98872.88;82116;1297;3011829;-62
2024/02/14 01:06:51;;;;;;;32.40;17.70;;;;;;;9.80;76.46;98873.51;80875;1294;3025437;-66
2024/02/14 01:09:18;;;;;;;29.70;16.20;;;;;;;9.61;76.39;98872.69;82137;1294;3013196;-66
2024/02/14 01:11:46;;;;;;;29.90;15.50;;;;;;;9.47;76.52;98876.08;82100;1292;3011541;-63
2024/02/14 01:14:15;;;;;;;25.30;14.60;;;;;;;9.35;76.49;98871.08;80850;1295;3052076;-64
2024/02/14 01:16:45;;;;;;;25.00;14.80;;;;;;;9.22;76.78;98878.69;82156;1295;3013062;-64
2024/02/14 01:19:14;;;;;;;25.40;14.40;;;;;;;9.13;76.96;98874.05;81597;1297;3011388;-67
2024/02/14 01:21:40;;;;;;;22.60;14.00;;;;;;;9.10;76.89;98870.77;82116;1293;3011439;-63
2024/02/14 01:24:08;;;;;;;22.70;14.60;;;;;;;9.07;76.93;98874.98;82136;1294;3011187;-64
2024/02/14 01:26:37;;;;;;;21.60;13.80;;;;;;;9.02;76.75;98874.23;80866;1293;3056104;-60
2024/02/14 01:29:05;;;;;;;22.10;13.60;;;;;;;8.98;76.78;98879.16;82148;1292;3019403;-62
2024/02/14 01:31:34;;;;;;;21.50;13.80;;;;;;;8.94;77.05;98878.09;82119;1298;3011245;-64
2024/02/14 01:34:03;;;;;;;22.70;14.20;;;;;;;8.90;77.34;98879.86;80849;1296;3051942;-65
2024/02/14 01:36:30;;;;;;;25.60;14.90;;;;;;;8.92;77.51;98877.31;82161;1295;3012740;-64
2024/02/14 01:38:56;;;;;;;25.00;14.50;;;;;;;8.93;77.49;98877.08;82123;1292;3011855;-64
2024/02/14 01:41:24;;;;;;;24.80;15.30;;;;;;;8.90;77.74;98876.21;80874;1295;3056684;-65
2024/02/14 01:43:51;;;;;;;24.50;15.70;;;;;;;8.86;78.30;98878.39;82178;1292;3013209;-64
2024/02/14 01:46:18;;;;;;;29.30;15.30;;;;;;;8.84;78.58;98875.70;82123;1293;3011175;-65
2024/02/14 01:48:47;;;;;;;23.70;15.00;;;;;;;8.81;78.55;98876.39;80698;1300;3025266;-61
2024/02/14 01:51:13;;;;;;;26.20;12.60;;;;;;;8.79;78.92;98877.45;82144;1297;3012490;-65
2024/02/14 01:53:40;;;;;;;20.30;12.10;;;;;;;9.31;78.19;98880.42;82079;1295;3011504;-65
2024/02/14 01:56:08;;;;;;;24.50;13.40;;;;;;;9.97;76.12;98879.61;80846;1292;3055462;-64
2024/02/14 01:58:34;;;;;;;21.20;12.50;;;;;;;10.10;75.18;98885.57;82106;1294;3018274;-63
2024/02/14 02:01:02;;;;;;;27.50;14.90;;;;;;;10.00;75.01;98884.45;82069;1294;3011888;-66
2024/02/14 02:03:35;;;;;;;26.10;14.60;;;;;;;9.88;75.53;98891.59;80882;1294;3051064;-63
2024/02/14 02:06:02;;;;;;;24.80;15.10;;;;;;;9.73;75.52;98893.45;82105;1293;3011336;-64
2024/02/14 02:08:32;;;;;;;25.50;14.90;;;;;;;9.58;76.02;98889.85;80828;1295;3068698;-67
2024/02/14 02:10:59;;;;;;;22.20;14.10;;;;;;;9.48;76.25;98892.94;82101;1297;3011495;-65
2024/02/14 02:13:25;;;;;;;27.70;14.60;;;;;;;9.36;76.47;98901.42;82164;1293;3011187;-71
2024/02/14 02:15:53;;;;;;;24.00;14.70;;;;;;;9.29;76.71;98901.52;80842;1293;3052902;-67
2024/02/14 02:18:20;;;;;;;26.00;14.60;;;;;;;9.24;76.88;98903.94;82149;1295;3012887;-68
2024/02/14 02:20:46;;;;;;;34.30;15.80;;;;;;;9.18;76.85;98906.08;82134;1296;3011416;-62
2024/02/14 02:23:14;;;;;;;23.80;15.00;;;;;;;9.11;77.27;98907.92;80878;1295;3025595;-65
2024/02/14 02:25:42;;;;;;;25.20;15.10;;;;;;;9.01;77.66;98912.89;82172;1292;3011521;-62
2024/02/14 02:28:08;;;;;;;22.10;14.70;;;;;;;8.95;77.72;98917.46;82133;1292;3011494;-67
2024/02/14 02:30:36;;;;;;;24.30;14.40;;;;;;;8.88;78.10;98919.98;80845;1295;3026191;-63
2024/02/14 02:33:04;;;;;;;21.20;14.10;;;;;;;8.80;78.43;98921.73;82164;1295;3012560;-62
2024/02/14 02:35:30;;;;;;;22.20;14.70;;;;;;;8.72;78.60;98925.89;82098;1300;3011778;-63
2024/02/14 02:37:59;;;;;;;28.40;15.10;;;;;;;8.67;79.18;98919.87;80894;1295;3067641;-62
2024/02/14 02:40:26;;;;;;;23.10;14.30;;;;;;;8.66;79.27;98925.23;82151;1293;3013150;-64
2024/02/14 02:42:54;;;;;;;24.30;14.90;;;;;;;8.62;79.34;98926.69;82154;1293;3010978;-62
2024/02/14 02:45:22;;;;;;;18.80;12.20;;;;;;;8.56;79.64;98927.73;80845;1293;3052851;-66
2024/02/14 02:47:51;;;;;;;22.00;12.90;;;;;;;9.07;78.66;98927.39;82138;1292;3012820;-64
2024/02/14 02:50:18;;;;;;;20.10;11.00;;;;;;;9.66;76.54;98922.58;82117;1295;3011590;-65
2024/02/14 02:52:45;;;;;;;22.90;13.00;;;;;;;9.82;75.73;98927.61;80898;1292;3070057;-68
2024/02/14 02:55:12;;;;;;;23.90;13.10;;;;;;;9.71;75.56;98929.79;82160;1293;3018751;-63
2024/02/14 02:57:41;;;;;;;22.70;13.80;;;;;;;9.55;75.83;98934.46;82104;1292;3011429;-62
2024/02/14 03:00:09;;;;;;;21.30;13.80;;;;;;;9.40;76.37;98931.60;80875;1293;3051014;-64
2024/02/14 03:02:41;;;;;;;22.20;14.10;;;;;;;9.24;76.79;98933.27;82162;1295;3012943;-64
2024/02/14 03:05:10;;;;;;;27.90;15.00;;;;;;;9.13;77.11;98935.77;80877;1294;3051359;-64
2024/02/14 03:07:37;;;;;;;23.80;13.90;;;;;;;8.97;77.45;98936.05;82148;1294;3012808;-67
2024/02/14 03:10:04;;;;;;;29.80;16.20;;;;;;;8.91;77.77;98935.02;82112;1298;3011262;-63
2024/02/14 03:12:35;;;;;;;27.80;15.90;;;;;;;8.81;78.40;98936.52;80865;1292;3048044;-66
2024/02/14 03:15:04;;;;;;;26.90;15.10;;;;;;;8.76;78.48;98934.36;82105;1293;3011460;-65
2024/02/14 03:17:32;;;;;;;24.80;14.50;;;;;;;8.72;78.52;98938.08;80893;1294;3049706;-62
2024/02/14 03:19:59;;;;;;;28.70;16.30;;;;;;;8.67;78.44;98942.20;82135;1294;3012626;-66
2024/02/14 03:22:25;;;;;;;29.30;16.20;;;;;;;8.59;78.83;98944.28;82132;1294;3011241;-65
2024/02/14 03:24:53;;;;;;;28.60;16.50;;;;;;;8.51;79.13;98949.50;80890;1294;3026009;-64
2024/02/14 03:27:23;;;;;;;24.40;15.30;;;;;;;8.44;79.60;98944.11;82128;1294;3018303;-63
2024/02/14 03:29:52;;;;;;;20.40;11.90;;;;;;;8.42;79.79;98944.77;81546;1293;3011249;-63
2024/02/14 03:32:19;;;;;;;23.10;13.60;;;;;;;8.92;79.28;98946.64;82102;1294;3012835;-63
2024/02/14 03:34:46;;;;;;;23.10;14.50;;;;;;;9.54;78.10;98942.38;82080;1293;3011422;-64
2024/02/14 03:37:14;;;;;;;23.90;13.70;;;;;;;9.70;77.63;98942.23;80858;1294;3026379;-63
2024/02/14 03:39:41;;;;;;;20.80;13.70;;;;;;;9.67;77.51;98940.33;82156;1294;3013004;-63
2024/02/14 03:42:08;;;;;;;25.20;15.50;;;;;;;9.54;77.38;98941.70;82112;1294;3011221;-66
2024/02/14 03:44:37;;;;;;;27.30;15.70;;;;;;;9.37;77.54;98949.40;80876;1292;3048716;-61
2024/02/14 03:47:04;;;;;;;25.40;15.50;;;;;;;9.22;77.60;98948.61;82154;1292;3013112;-65
2024/02/14 03:49:31;;;;;;;30.00;16.30;;;;;;;9.08;77.94;98948.23;82145;1293;3011444;-66
2024/02/14 03:52:01;;;;;;;25.70;16.60;;;;;;;8.96;77.98;98953.77;80857;1298;3054106;-62
2024/02/14 03:54:27;;;;;;;26.40;17.40;;;;;;;8.88;78.34;98955.11;82130;1293;3012553;-62
2024/02/14 03:56:55;;;;;;;27.10;17.30;;;;;;;8.80;78.33;98960.13;82156;1294;3011323;-65
2024/02/14 03:59:24;;;;;;;30.90;17.30;;;;;;;8.68;78.58;98959.81;80860;1292;3047927;-62
2024/02/14 04:01:53;;;;;;;29.00;17.70;;;;;;;8.61;78.77;98960.23;82089;1296;3012924;-64
2024/02/14 04:04:21;;;;;;;28.60;17.80;;;;;;;8.55;79.00;98959.86;81577;1294;3011690;-68
2024/02/14 04:06:48;;;;;;;30.00;18.20;;;;;;;8.50;79.18;98957.40;82137;1294;3018220;-64
2024/02/14 04:09:15;;;;;;;33.50;18.90;;;;;;;8.44;79.07;98960.36;82115;1294;3011544;-62
2024/02/14 04:11:43;;;;;;;23.00;14.40;;;;;;;8.42;79.43;98967.10;80876;1292;3026408;-64
2024/02/14 04:14:10;;;;;;;24.20;15.40;;;;;;;8.97;78.85;98964.50;82098;1296;3012514;-63
2024/02/14 04:16:37;;;;;;;26.00;16.40;;;;;;;9.56;77.66;98964.65;82059;1294;3011331;-64
2024/02/14 04:19:05;;;;;;;27.90;17.00;;;;;;;9.67;77.37;98963.05;80802;1294;3049618;-64
2024/02/14 04:21:32;;;;;;;27.00;16.90;;;;;;;9.58;77.41;98963.27;82076;1294;3012982;-61
2024/02/14 04:23:59;;;;;;;32.50;19.80;;;;;;;9.44;77.36;98962.30;82083;1294;3011305;-63
2024/02/14 04:26:27;;;;;;;28.00;19.00;;;;;;;9.28;77.66;98963.61;80792;1295;3050938;-64
2024/02/14 04:28:53;;;;;;;30.40;19.50;;;;;;;9.10;77.93;98965.77;82162;1293;3012608;-65
2024/02/14 04:31:20;;;;;;;34.20;20.50;;;;;;;8.97;78.13;98971.52;82112;1295;3011262;-64
2024/02/14 04:33:51;;;;;;;30.90;23.20;;;;;;;8.87;78.17;98977.16;80852;1294;3026202;-64
2024/02/14 04:36:19;;;;;;;32.60;22.50;;;;;;;8.78;78.29;98975.77;82118;1294;3011464;-63
2024/02/14 04:38:48;;;;;;;34.10;24.60;;;;;;;8.69;78.33;98978.78;80852;1294;3052560;-63
2024/02/14 04:41:15;;;;;;;32.80;22.50;;;;;;;8.58;78.74;98980.51;82151;1295;3011192;-65
2024/02/14 04:43:42;;;;;;;31.40;20.20;;;;;;;8.42;79.43;98974.61;82131;1298;3011219;-65
2024/02/14 04:46:10;;;;;;;32.60;20.70;;;;;;;8.30;79.91;98976.70;80844;1293;3048405;-63
2024/02/14 04:48:37;;;;;;;29.20;19.60;;;;;;;8.22;80.49;98982.23;82127;1294;3013408;-64
2024/02/14 04:51:04;;;;;;;24.00;15.90;;;;;;;8.16;80.93;98990.05;82103;1292;3011376;-66
2024/02/14 04:53:32;;;;;;;27.90;16.10;;;;;;;8.70;80.30;98989.88;80878;1293;3052089;-64
2024/02/14 04:56:02;;;;;;;27.70;16.30;;;;;;;9.33;78.76;98988.11;82120;1295;3012812;-62
2024/02/14 04:58:28;;;;;;;28.00;15.10;;;;;;;9.43;78.04;98991.55;82106;1292;3011322;-62
2024/02/14 05:00:56;;;;;;;27.60;16.20;;;;;;;9.26;78.11;98998.33;80849;1292;3048385;-69
2024/02/14 05:03:24;;;;;;;27.10;16.60;;;;;;;9.13;78.58;98997.08;82100;1295;3012834;-61
2024/02/14 05:05:50;;;;;;;33.10;18.00;;;;;;;8.95;79.04;98998.17;82140;1292;3011029;-63
2024/02/14 05:08:18;;;;;;;31.90;19.00;;;;;;;8.78;79.52;99005.13;80834;1294;3053302;-63
2024/02/14 05:10:45;;;;;;;40.20;19.20;;;;;;;8.69;79.95;99006.03;82153;1294;3018305;-63
2024/02/14 05:13:13;;;;;;;35.20;23.10;;;;;;;8.61;80.14;99008.45;82047;1294;3011317;-63
2024/02/14 05:15:41;;;;;;;35.00;22.90;;;;;;;8.52;80.40;99008.09;80829;1294;3047932;-62
2024/02/14 05:18:08;;;;;;;31.40;22.20;;;;;;;8.48;80.76;99008.16;82111;1292;3012690;-63
2024/02/14 05:20:34;;;;;;;32.50;22.80;;;;;;;8.42;80.71;99015.06;82098;1293;3011277;-63
2024/02/14 05:23:03;;;;;;;40.90;28.00;;;;;;;8.35;81.23;99026.70;80821;1294;3051361;-63
2024/02/14 05:25:32;;;;;;;35.70;26.90;;;;;;;8.29;81.49;99031.07;82094;1294;3012873;-63
2024/02/14 05:28:00;;;;;;;32.60;19.90;;;;;;;8.25;81.94;99030.92;80820;1292;3055031;-64
2024/02/14 05:30:27;;;;;;;32.90;19.20;;;;;;;8.79;80.99;99030.38;82081;1294;3012606;-62
2024/02/14 05:32:54;;;;;;;29.80;17.50;;;;;;;9.40;79.01;99026.16;82061;1292;3011309;-64
2024/02/14 05:35:22;;;;;;;23.40;16.40;;;;;;;9.54;78.33;99020.39;80879;1297;3051654;-65
2024/02/14 05:37:49;;;;;;;29.70;17.30;;;;;;;9.48;77.97;99023.55;81875;1294;3373517;-65
2024/02/14 05:40:16;;;;;;;29.60;17.50;;;;;;;9.34;78.10;99027.23;82071;1294;3010939;-64
2024/02/14 05:42:44;;;;;;;26.50;17.90;;;;;;;9.18;78.41;99032.03;80874;1292;3026894;-63
2024/02/14 05:45:10;;;;;;;29.90;19.00;;;;;;;9.02;78.87;99032.66;82122;1292;3012886;-62
2024/02/14 05:47:38;;;;;;;34.60;18.80;;;;;;;8.91;79.37;99032.82;82134;1292;3011146;-69
2024/02/14 05:50:08;;;;;;;26.60;18.10;;;;;;;8.85;79.35;99032.31;80830;1297;3051787;-64
2024/02/14 05:52:35;;;;;;;28.40;17.40;;;;;;;8.76;79.69;99028.67;82108;1294;3011521;-64
2024/02/14 05:55:03;;;;;;;29.00;18.20;;;;;;;8.72;79.96;99027.84;82104;1294;3011519;-64
2024/02/14 05:57:31;;;;;;;34.30;20.10;;;;;;;8.69;79.95;99034.50;80817;1294;3055869;-62
2024/02/14 05:59:58;;;;;;;34.40;22.60;;;;;;;8.65;80.04;99050.08;82137;1292;3018058;-63
2024/02/14 06:02:26;;;;;;;33.30;22.00;;;;;;;8.63;79.89;99055.58;82105;1295;3011528;-64
2024/02/14 06:04:54;;;;;;;34.60;20.30;;;;;;;8.53;80.19;99054.25;80858;1294;3053274;-64
2024/02/14 06:07:20;;;;;;;28.90;19.30;;;;;;;8.51;80.42;99050.71;82168;1294;3012670;-62
2024/02/14 06:09:47;;;;;;;33.30;22.40;;;;;;;8.44;80.89;99049.55;82084;1292;3011460;-66
2024/02/14 06:12:15;;;;;;;28.80;15.90;;;;;;;8.39;81.42;99049.48;80829;1292;3026854;-65
2024/02/14 06:14:41;;;;;;;29.60;17.20;;;;;;;8.88;80.45;99046.63;82142;1292;3013167;-60
2024/02/14 06:17:11;;;;;;;28.40;17.00;;;;;;;9.51;78.19;99042.95;82082;1292;3011175;-66
2024/02/14 06:19:39;;;;;;;29.90;16.90;;;;;;;9.65;77.02;99048.38;80809;1294;3052442;-61
2024/02/14 06:22:05;;;;;;;27.60;18.20;;;;;;;9.60;76.78;99051.48;82082;1294;3018411;-65
2024/02/14 06:24:32;;;;;;;31.30;18.30;;;;;;;9.50;76.92;99050.71;82023;1294;3011172;-64
2024/02/14 06:27:00;;;;;;;30.20;18.50;;;;;;;9.37;77.17;99053.44;80832;1294;3026710;-67
2024/02/14 06:29:26;;;;;;;39.90;23.10;;;;;;;9.24;77.62;99052.83;82126;1292;3012657;-61
2024/02/14 06:31:53;;;;;;;42.40;29.10;;;;;;;9.11;78.01;99056.77;82082;1294;3011382;-63
2024/02/14 06:34:21;;;;;;;42.80;25.80;;;;;;;9.03;78.26;99057.60;80842;1294;3025374;-65
2024/02/14 06:36:48;;;;;;;38.40;25.40;;;;;;;8.94;78.46;99055.02;82146;1294;3012926;-64
2024/02/14 06:39:14;;;;;;;39.10;25.00;;;;;;;8.84;79.05;99059.22;82079;1294;3011412;-63
2024/02/14 06:41:45;;;;;;;38.70;24.20;;;;;;;8.83;79.37;99068.41;80819;1294;3025648;-62
2024/02/14 06:44:11;;;;;;;36.90;24.50;;;;;;;8.80;79.67;99079.58;82124;1292;3012315;-62
2024/02/14 06:46:38;;;;;;;37.90;26.20;;;;;;;8.78;79.79;99079.20;82128;1292;3011434;-63
2024/02/14 06:49:06;;;;;;;50.20;28.40;;;;;;;8.75;80.10;99075.54;80846;1294;3051823;-63
2024/02/14 06:51:33;;;;;;;41.40;28.60;;;;;;;8.75;80.13;99073.42;82177;1292;3012620;-64
2024/02/14 06:53:59;;;;;;;44.50;26.70;;;;;;;8.74;80.14;99076.59;82151;1292;3011430;-62
2024/02/14 06:56:29;;;;;;;37.00;23.80;;;;;;;8.75;80.39;99079.17;80872;1292;3026085;-63
2024/02/14 06:58:59;;;;;;;39.90;23.30;;;;;;;8.78;80.34;99074.30;82170;1292;3012628;-64
2024/02/14 07:01:27;;;;;;;25.60;16.80;;;;;;;8.77;80.13;99074.17;80858;1294;3054688;-62
2024/02/14 07:03:54;;;;;;;32.80;20.10;;;;;;;9.34;79.12;99070.00;82172;1293;3013172;-63
2024/02/14 07:06:20;;;;;;;36.20;19.70;;;;;;;10.00;76.73;99071.86;82152;1297;3011354;-63
2024/02/14 07:08:48;;;;;;;34.50;20.30;;;;;;;10.19;75.72;99070.44;80891;1294;3026254;-65
2024/02/14 07:11:16;;;;;;;34.10;21.80;;;;;;;10.17;75.66;99066.04;82152;1292;3012840;-64
2024/02/14 07:13:43;;;;;;;33.70;21.80;;;;;;;10.10;75.34;99064.04;82149;1292;3011214;-63
2024/02/14 07:16:11;;;;;;;38.60;24.30;;;;;;;10.00;75.92;99067.30;80862;1294;3051790;-64
2024/02/14 07:18:38;;;;;;;37.80;24.80;;;;;;;9.95;75.99;99063.92;82147;1294;3012499;-65
2024/02/14 07:21:05;;;;;;;39.30;25.20;;;;;;;9.97;76.12;99063.48;82108;1298;3011687;-63
2024/02/14 07:23:36;;;;;;;38.50;25.30;;;;;;;9.93;76.16;99060.73;80890;1294;3069615;-60
2024/02/14 07:26:04;;;;;;;41.30;25.60;;;;;;;9.90;76.64;99063.54;82105;1297;3011073;-64
2024/02/14 07:28:32;;;;;;;41.70;25.70;;;;;;;9.89;76.68;99057.50;80865;1292;3026345;-64
2024/02/14 07:30:58;;;;;;;43.90;25.30;;;;;;;9.95;76.72;99059.90;82116;1292;3012565;-68
2024/02/14 07:33:25;;;;;;;43.20;25.90;;;;;;;10.00;76.56;99062.77;82146;1292;3011168;-59
2024/02/14 07:35:53;;;;;;;41.50;26.40;;;;;;;10.04;76.90;99061.08;80889;1295;3026312;-63
2024/02/14 07:38:20;;;;;;;37.10;23.20;;;;;;;10.08;76.47;99057.67;82142;1293;3018058;-61
2024/02/14 07:40:46;;;;;;;34.30;22.40;;;;;;;10.10;76.49;99051.08;82122;1292;3011268;-64
2024/02/14 07:43:14;;;;;;;35.10;22.40;;;;;;;10.11;76.63;99056.75;80872;1292;3025715;-65
2024/02/14 07:45:41;;;;;;;39.00;21.10;;;;;;;10.16;76.67;99057.55;82174;1294;3012518;-64
2024/02/14 07:48:08;;;;;;;38.40;21.60;;;;;;;10.21;76.68;99060.88;82116;1292;3011202;-63
2024/02/14 07:50:37;;;;;;;36.30;21.70;;;;;;;10.21;76.53;99065.20;80883;1294;3052033;-64
2024/02/14 07:53:03;;;;;;;37.50;21.60;;;;;;;10.28;76.38;99069.83;82156;1294;3012386;-61
2024/02/14 07:55:31;;;;;;;43.40;24.00;;;;;;;10.31;75.97;99070.73;82110;1293;3011273;-62
2024/02/14 07:57:59;;;;;;;36.20;22.70;;;;;;;10.35;75.92;99074.17;80855;1294;3056745;-61
2024/02/14 08:00:26;;;;;;;39.10;23.10;;;;;;;10.38;75.89;99076.59;82159;1294;3011654;-67
2024/02/14 08:02:53;;;;;;;39.30;24.80;;;;;;;10.44;75.73;99079.54;82139;1292;3011518;-63
2024/02/14 08:05:22;;;;;;;38.40;23.70;;;;;;;10.52;75.64;99077.08;80877;1292;3052201;-66
2024/02/14 08:07:49;;;;;;;34.30;23.60;;;;;;;10.61;75.33;99078.20;82138;1293;3012617;-68
2024/02/14 08:10:17;;;;;;;33.30;23.20;;;;;;;10.69;74.71;99083.67;82125;1293;3011587;-64
2024/02/14 08:12:44;;;;;;;37.80;24.90;;;;;;;10.75;74.58;99082.55;80855;1292;3057084;-67
2024/02/14 08:15:11;;;;;;;37.80;23.20;;;;;;;10.83;74.13;99084.28;82076;1294;3018738;-64
2024/02/14 08:17:38;;;;;;;36.10;23.30;;;;;;;10.95;73.98;99081.90;82032;1294;3011480;-65
2024/02/14 08:20:07;;;;;;;37.50;23.90;;;;;;;11.02;73.88;99082.67;80861;1298;3025963;-63
2024/02/14 08:22:34;;;;;;;41.90;24.20;;;;;;;11.04;73.60;99084.25;82090;1294;3012949;-69
2024/02/14 08:25:00;;;;;;;42.30;25.70;;;;;;;11.07;73.55;99082.30;82138;1294;3011621;-60
2024/02/14 08:27:31;;;;;;;35.80;24.20;;;;;;;11.11;73.73;99087.85;80873;1293;3056084;-72
2024/02/14 08:29:57;;;;;;;40.10;24.30;;;;;;;11.18;73.65;99094.67;82153;1294;3011556;-64
2024/02/14 08:32:26;;;;;;;44.90;25.70;;;;;;;11.23;73.80;99097.84;81602;1294;3011623;-63
2024/02/14 08:34:53;;;;;;;41.40;25.30;;;;;;;11.33;73.78;99102.59;82069;1295;3012612;-60
2024/02/14 08:37:19;;;;;;;43.50;24.70;;;;;;;11.39;73.52;99114.81;82123;1293;3012028;-62
2024/02/14 08:39:47;;;;;;;35.00;22.50;;;;;;;11.38;73.22;99117.84;80848;1294;3027199;-62
2024/02/14 08:42:14;;;;;;;38.70;21.40;;;;;;;11.36;73.26;99119.59;82119;1292;3018885;-63
2024/02/14 08:44:41;;;;;;;38.80;21.60;;;;;;;11.34;73.22;99120.59;82111;1292;3011448;-64
2024/02/14 08:47:09;;;;;;;34.40;20.30;;;;;;;11.31;73.31;99124.29;80829;1297;3026324;-63
2024/02/14 08:49:35;;;;;;;32.30;19.50;;;;;;;11.34;73.63;99121.68;82158;1295;3012501;-65
2024/02/14 08:52:02;;;;;;;29.80;20.00;;;;;;;11.36;73.80;99124.46;82070;1294;3011262;-62
2024/02/14 08:54:32;;;;;;;33.30;20.50;;;;;;;11.38;74.03;99125.58;80828;1292;3068134;-64
2024/02/14 08:56:59;;;;;;;33.80;20.30;;;;;;;11.42;74.05;99127.59;82083;1294;3012716;-64
2024/02/14 08:59:26;;;;;;;31.70;19.50;;;;;;;11.54;73.66;99129.89;82060;1300;3011216;-64
2024/02/14 09:01:54;;;;;;;34.10;21.00;;;;;;;11.59;73.90;99129.91;80817;1292;3051892;-63
2024/02/14 09:04:20;;;;;;;40.00;22.50;;;;;;;11.62;73.49;99128.80;82119;1297;3013017;-64
2024/02/14 09:06:47;;;;;;;35.00;21.60;;;;;;;11.66;73.59;99127.63;82153;1293;3011356;-64
2024/02/14 09:09:15;;;;;;;40.10;21.70;;;;;;;11.67;73.82;99127.80;80846;1294;3025232;-63
2024/02/14 09:11:42;;;;;;;40.00;22.50;;;;;;;11.66;73.98;99120.85;82152;1292;3012497;-67
2024/02/14 09:14:10;;;;;;;35.80;22.90;;;;;;;11.72;73.81;99121.25;82104;1292;3011348;-67
2024/02/14 09:16:38;;;;;;;41.20;22.50;;;;;;;11.80;73.46;99122.14;80840;1292;3052583;-64
2024/02/14 09:19:07;;;;;;;33.20;21.40;;;;;;;11.90;73.52;99124.02;82144;1292;3012626;-71
2024/02/14 09:21:36;;;;;;;41.10;22.80;;;;;;;12.00;73.11;99125.63;81549;1294;3011338;-64
2024/02/14 09:24:03;;;;;;;38.30;21.30;;;;;;;12.10;73.41;99125.11;82132;1294;3018834;-60
2024/02/14 09:26:30;;;;;;;36.10;23.10;;;;;;;12.22;73.33;99122.16;82134;1292;3011229;-63
2024/02/14 09:28:58;;;;;;;36.30;22.90;;;;;;;12.35;72.94;99126.11;80863;1292;3056444;-63
2024/02/14 09:31:24;;;;;;;36.90;22.60;;;;;;;12.49;72.38;99123.70;82092;1294;3012713;-67
2024/02/14 09:33:56;;;;;;;42.00;23.10;;;;;;;12.55;71.91;99120.05;82116;1294;3011384;-69
2024/02/14 09:36:24;;;;;;;33.90;20.30;;;;;;;12.63;71.47;99119.98;80899;1294;3052439;-69
2024/02/14 09:38:51;;;;;;;36.50;21.90;;;;;;;12.74;71.66;99117.42;82153;1293;3012710;-66
2024/02/14 09:44:38;;;;;;;31.80;20.40;;;;;;;12.80;71.35;99116.11;80176;1299;3011890;-63
2024/02/14 09:47:05;;;;;;;37.50;19.20;;;;;;;12.77;71.52;99118.42;80993;1299;3015886;-65
2024/02/14 09:49:32;;;;;;;35.30;21.50;;;;;;;12.78;71.32;99114.14;79064;1304;3012914;-64
2024/02/14 09:52:02;;;;;;;36.20;20.20;;;;;;;12.78;71.37;99112.23;77911;1305;3052711;-64
2024/02/14 09:54:31;;;;;;;35.30;20.00;;;;;;;12.81;71.35;99115.31;79492;1304;3011701;-63
2024/02/14 09:56:59;;;;;;;34.30;20.40;;;;;;;12.90;71.28;99115.56;77678;1305;3028138;-63
2024/02/14 09:59:25;;;;;;;34.70;19.50;;;;;;;12.91;71.06;99115.63;79221;1299;3015368;-63
2024/02/14 10:01:52;;;;;;;32.30;21.10;;;;;;;13.02;70.67;99117.06;79320;1299;3011497;-65
2024/02/14 10:04:21;;;;;;;37.60;20.60;;;;;;;13.14;70.45;99123.55;78015;1301;3026347;-66
2024/02/14 10:06:52;;;;;;;32.50;19.60;;;;;;;13.24;70.24;99117.36;79227;1301;3012836;-65
2024/02/14 10:09:21;;;;;;;31.30;19.80;;;;;;;13.37;69.61;99118.48;78209;1300;3054269;-64
2024/02/14 10:11:49;;;;;;;36.40;20.40;;;;;;;13.52;69.15;99117.64;79345;1298;3013314;-63
2024/02/14 10:14:19;;;;;;;32.40;20.90;;;;;;;13.62;68.78;99115.12;78679;1298;3013298;-65
2024/02/14 10:16:46;;;;;;;35.00;20.60;;;;;;;13.77;68.28;99109.39;79374;1299;3013045;-64
2024/02/14 10:19:19;;;;;;;35.80;21.30;;;;;;;13.90;68.21;99106.39;78843;1299;3011419;-64
2024/02/14 10:22:05;;;;;;;31.50;18.40;;;;;;;14.06;67.97;99105.67;79347;1300;3011891;-64
2024/02/14 10:24:33;;;;;;;32.00;19.90;;;;;;;14.23;67.64;99104.13;77961;1300;3050489;-61
2024/02/14 10:27:00;;;;;;;32.40;19.30;;;;;;;14.36;67.20;99100.24;79270;1301;3012929;-66
2024/02/14 10:29:27;;;;;;;34.40;18.70;;;;;;;14.47;65.88;99103.02;79308;1301;3011931;-63
2024/02/14 10:31:55;;;;;;;32.50;19.00;;;;;;;14.54;65.98;99100.02;78299;1300;3026943;-65
2024/02/14 10:34:25;;;;;;;34.00;18.30;;;;;;;14.52;66.18;99099.64;79282;1299;3018492;-63
2024/02/14 10:36:54;;;;;;;32.70;18.70;;;;;;;14.56;66.34;99097.72;78757;1297;3013132;-64
2024/02/14 10:39:21;;;;;;;33.40;19.60;;;;;;;14.57;66.64;99096.60;79391;1298;3012641;-64
2024/02/14 10:41:48;;;;;;;35.90;19.20;;;;;;;14.54;66.70;99094.38;79546;1302;3011861;-64
2024/02/14 10:44:15;;;;;;;30.50;19.00;;;;;;;14.48;66.32;99091.83;78705;1298;3027138;-65
2024/02/14 10:46:42;;;;;;;29.40;18.00;;;;;;;14.52;66.20;99089.44;79440;1299;3018434;-64
2024/02/14 10:49:09;;;;;;;30.30;18.20;;;;;;;14.61;65.81;99083.73;79582;1298;3013345;-65
2024/02/14 10:51:38;;;;;;;33.40;19.40;;;;;;;14.71;65.57;99083.77;78029;1304;3027040;-63
2024/02/14 10:54:09;;;;;;;30.00;18.80;;;;;;;14.76;65.13;99075.24;79458;1299;3013790;-62
2024/02/14 10:56:45;;;;;;;34.00;18.50;;;;;;;14.86;65.14;99075.50;78180;1298;3052893;-62
2024/02/14 10:59:17;;;;;;;29.30;17.40;;;;;;;14.98;64.50;99075.23;78328;1301;3053026;-64
2024/02/14 11:01:51;;;;;;;34.00;17.80;;;;;;;14.97;64.45;99077.71;79000;1298;3011885;-62
2024/02/14 11:04:18;;;;;;;33.40;16.90;;;;;;;14.99;63.97;99083.27;79509;1295;3013126;-64
2024/02/14 11:06:46;;;;;;;29.00;16.00;;;;;;;14.98;64.07;99087.21;79273;1295;3011701;-64
2024/02/14 11:09:15;;;;;;;30.20;16.00;;;;;;;15.04;64.44;99089.35;78249;1295;3049559;-66
2024/02/14 11:11:43;;;;;;;31.70;16.80;;;;;;;15.11;64.45;99093.49;79755;1301;3012920;-65